Time;durP1;ratioP1;P1;durP2;ratioP2;P2;SDS_P1;SDS_P2;PMS_P1;PMS_P2;Temp;Humidity;BMP_temperature;BMP_pressure;BME280_temperature;BME280_humidity;BME280_pressure;Samples;Min_cycle;Max_cycle;Signal;HPM_P1;HPM_P2
2022/11/28 00:01:37;;;;;;;17.30;7.10;;;;;;;6.45;76.77;100422.77;24476;1333;3049929;-70
2022/11/28 00:04:07;;;;;;;20.50;9.30;;;;;;;7.04;74.52;100422.44;24436;1336;3028723;-70
2022/11/28 00:06:44;;;;;;;24.20;10.90;;;;;;;7.08;73.49;100423.54;24505;1341;3028276;-69
2022/11/28 00:09:14;;;;;;;23.50;10.10;;;;;;;6.96;73.95;100420.41;24498;1340;3068452;-69
2022/11/28 00:11:46;;;;;;;25.00;11.00;;;;;;;6.76;74.37;100428.51;24489;1332;3026573;-69
2022/11/28 00:14:16;;;;;;;26.60;10.70;;;;;;;6.54;75.14;100427.75;24515;1336;3025506;-68
2022/11/28 00:16:45;;;;;;;24.00;11.50;;;;;;;6.41;75.79;100432.45;24441;1332;3028542;-68
2022/11/28 00:19:16;;;;;;;29.00;11.60;;;;;;;6.28;76.33;100435.05;24454;1324;3027929;-70
2022/11/28 00:21:45;;;;;;;27.50;12.60;;;;;;;6.14;76.78;100436.14;24479;1333;3026023;-68
2022/11/28 00:24:14;;;;;;;25.50;11.80;;;;;;;6.07;77.10;100438.77;24543;1335;3051333;-69
2022/11/28 00:26:44;;;;;;;29.80;12.10;;;;;;;5.91;77.52;100438.98;24526;1318;3028359;-69
2022/11/28 00:29:13;;;;;;;17.30;8.60;;;;;;;5.80;78.25;100441.69;24557;1325;3057107;-67
2022/11/28 00:31:42;;;;;;;20.10;7.50;;;;;;;6.26;77.37;100440.86;24453;1317;3028539;-72
2022/11/28 00:34:12;;;;;;;25.60;10.10;;;;;;;6.75;75.04;100436.35;24525;1332;3049868;-71
2022/11/28 00:36:45;;;;;;;28.10;11.00;;;;;;;6.82;74.56;100432.50;24478;1339;3028255;-71
2022/11/28 00:39:14;;;;;;;30.40;12.40;;;;;;;6.74;74.63;100436.03;24494;1333;3027301;-66
2022/11/28 00:41:43;;;;;;;29.00;11.40;;;;;;;6.55;74.90;100439.39;24494;1332;3026264;-67
2022/11/28 00:44:12;;;;;;;29.30;12.30;;;;;;;6.34;75.92;100437.35;24454;1339;3055087;-64
2022/11/28 00:46:41;;;;;;;29.60;11.70;;;;;;;6.23;76.65;100440.60;24520;1332;3026497;-75
2022/11/28 00:49:19;;;;;;;31.40;12.10;;;;;;;6.14;76.77;100438.58;24505;1338;3050029;-69
2022/11/28 00:51:49;;;;;;;33.20;12.10;;;;;;;6.01;77.03;100439.79;24459;1337;3030853;-65
2022/11/28 00:54:18;;;;;;;31.20;11.00;;;;;;;5.89;77.52;100441.28;24473;1326;3029023;-65
2022/11/28 00:56:47;;;;;;;30.00;12.10;;;;;;;5.79;78.22;100440.30;24448;1340;3049257;-67
2022/11/28 00:59:16;;;;;;;24.30;9.90;;;;;;;5.72;78.59;100443.80;24515;1337;3029680;-63
2022/11/28 01:01:45;;;;;;;21.40;8.20;;;;;;;6.17;77.86;100434.83;24419;1334;3068258;-72
2022/11/28 01:04:14;;;;;;;23.20;10.00;;;;;;;6.70;75.42;100430.23;24512;1339;3028550;-68
2022/11/28 01:06:45;;;;;;;23.80;9.50;;;;;;;6.82;74.65;100432.66;24525;1335;3050677;-71
2022/11/28 01:09:17;;;;;;;32.10;12.10;;;;;;;6.71;74.81;100433.52;24467;1327;3026629;-67
2022/11/28 01:11:47;;;;;;;32.90;13.10;;;;;;;6.66;75.24;100438.02;24515;1343;3026253;-65
2022/11/28 01:14:22;;;;;;;30.30;11.00;;;;;;;6.45;75.63;100436.88;24512;1325;3056971;-68
2022/11/28 01:16:51;;;;;;;27.10;10.00;;;;;;;6.35;76.20;100442.37;24495;1339;3028771;-67
2022/11/28 01:19:20;;;;;;;29.70;11.80;;;;;;;6.31;76.38;100441.09;24459;1326;3028142;-67
2022/11/28 01:21:49;;;;;;;32.60;12.10;;;;;;;6.10;76.99;100443.23;24501;1326;3055987;-69
2022/11/28 01:24:18;;;;;;;31.90;11.40;;;;;;;6.01;77.20;100444.65;24454;1333;3028987;-67
2022/11/28 01:26:47;;;;;;;30.00;12.60;;;;;;;5.91;77.88;100442.29;24540;1325;3049370;-63
2022/11/28 01:29:17;;;;;;;23.20;8.50;;;;;;;5.82;78.17;100444.25;24456;1326;3028722;-74
2022/11/28 01:31:46;;;;;;;19.40;7.00;;;;;;;6.24;77.17;100437.27;24480;1339;3069907;-67
2022/11/28 01:34:15;;;;;;;22.10;9.20;;;;;;;6.79;75.29;100439.54;24457;1326;3025805;-67
2022/11/28 01:36:44;;;;;;;27.60;11.00;;;;;;;6.95;74.44;100438.02;24496;1339;3050157;-64
2022/11/28 01:39:14;;;;;;;24.20;11.20;;;;;;;6.89;74.58;100435.77;24457;1330;3028360;-65
2022/11/28 01:41:43;;;;;;;26.90;11.20;;;;;;;6.68;74.72;100440.75;24518;1332;3051914;-69
2022/11/28 01:44:12;;;;;;;28.30;11.20;;;;;;;6.53;75.50;100441.17;24482;1334;3026375;-64
2022/11/28 01:46:41;;;;;;;24.80;10.90;;;;;;;6.37;75.81;100443.86;24539;1332;3050235;-67
2022/11/28 01:49:14;;;;;;;22.10;9.50;;;;;;;6.21;76.48;100446.56;24474;1333;3028413;-65
2022/11/28 01:51:47;;;;;;;24.20;9.80;;;;;;;6.19;76.88;100446.45;24530;1341;3025876;-72
2022/11/28 01:54:16;;;;;;;23.10;9.80;;;;;;;6.17;76.98;100447.91;24501;1325;3026205;-66
2022/11/28 01:56:51;;;;;;;29.90;11.20;;;;;;;6.06;77.00;100448.52;24504;1339;3026159;-65
2022/11/28 01:59:21;;;;;;;31.20;11.30;;;;;;;5.91;77.61;100446.46;24457;1335;3054818;-63
2022/11/28 02:01:51;;;;;;;25.70;8.10;;;;;;;5.81;78.30;100449.67;24434;1339;3028923;-71
2022/11/28 02:04:20;;;;;;;16.60;6.70;;;;;;;6.29;77.20;100446.88;24483;1334;3026436;-68
2022/11/28 02:06:49;;;;;;;21.70;8.60;;;;;;;6.87;75.17;100448.55;24451;1337;3028366;-64
2022/11/28 02:09:18;;;;;;;25.10;9.80;;;;;;;6.95;74.69;100445.16;24500;1339;3052395;-73
2022/11/28 02:12:05;;;;;;;27.40;11.40;;;;;;;6.83;74.56;100446.05;24466;1326;3028888;-65
2022/11/28 02:15:07;;;;;;;24.30;8.90;;;;;;;6.79;75.21;100445.31;24486;1336;3056837;-63
2022/11/28 02:18:00;;;;;;;22.70;9.50;;;;;;;6.60;75.30;100443.59;24479;1317;3053294;-64
2022/11/28 02:20:38;;;;;;;22.00;10.70;;;;;;;6.41;75.97;100448.11;24546;1338;3053597;-63
2022/11/28 02:23:34;;;;;;;24.80;10.60;;;;;;;6.19;76.73;100448.71;24463;1333;3051468;-68
2022/11/28 02:26:21;;;;;;;28.30;10.70;;;;;;;6.02;77.66;100444.29;24501;1342;3052585;-69
2022/11/28 02:29:02;;;;;;;23.90;10.50;;;;;;;5.93;78.23;100448.84;24466;1332;3050008;-67
2022/11/28 02:31:49;;;;;;;27.20;11.30;;;;;;;5.87;78.73;100447.59;24481;1333;3069376;-64
2022/11/28 02:34:50;;;;;;;22.10;8.40;;;;;;;5.82;79.01;100453.64;24501;1333;3050313;-62
2022/11/28 02:37:52;;;;;;;19.50;6.50;;;;;;;6.82;76.89;100443.81;24485;1339;3057313;-67
2022/11/28 02:40:36;;;;;;;23.30;9.40;;;;;;;7.09;74.30;100444.58;24505;1333;3052260;-69
2022/11/28 02:43:24;;;;;;;25.90;11.10;;;;;;;7.00;74.25;100446.08;24491;1334;3053138;-68
2022/11/28 02:45:57;;;;;;;30.90;11.70;;;;;;;6.83;74.90;100443.27;24470;1332;3051352;-69
2022/11/28 02:48:54;;;;;;;25.70;10.80;;;;;;;6.62;75.65;100446.84;24488;1334;3027412;-66
2022/11/28 02:51:37;;;;;;;29.70;11.10;;;;;;;6.45;76.69;100442.77;24477;1333;3049355;-64
2022/11/28 02:54:11;;;;;;;25.50;10.80;;;;;;;6.38;77.13;100443.86;24448;1333;3068781;-64
2022/11/28 02:56:51;;;;;;;24.80;10.50;;;;;;;6.20;77.57;100443.31;24458;1333;3050478;-67
2022/11/28 02:59:38;;;;;;;25.80;11.00;;;;;;;6.08;78.24;100447.44;24501;1332;3057738;-68
2022/11/28 03:02:21;;;;;;;25.10;12.00;;;;;;;6.00;78.74;100449.38;24480;1334;3052937;-65
2022/11/28 03:05:17;;;;;;;26.60;11.60;;;;;;;5.92;79.39;100453.55;24435;1325;3053045;-64
2022/11/28 03:08:13;;;;;;;17.10;7.30;;;;;;;5.91;79.69;100454.11;24484;1332;3051829;-65
2022/11/28 03:10:51;;;;;;;20.10;7.70;;;;;;;6.69;77.58;100441.05;24500;1333;3053398;-68
2022/11/28 03:13:45;;;;;;;16.10;7.60;;;;;;;7.29;75.43;100439.95;24458;1327;3048573;-68
2022/11/28 03:16:15;;;;;;;20.00;9.20;;;;;;;7.34;74.88;100441.55;24471;1330;3068550;-69
2022/11/28 03:19:04;;;;;;;26.70;11.50;;;;;;;7.10;74.94;100444.36;24555;1324;3028686;-72
2022/11/28 03:21:45;;;;;;;22.40;10.10;;;;;;;6.85;76.03;100452.78;24525;1331;3049360;-64
2022/11/28 03:24:52;;;;;;;25.40;10.80;;;;;;;6.65;76.63;100454.41;24493;1325;3069111;-61
2022/11/28 03:27:25;;;;;;;23.00;10.20;;;;;;;6.52;77.48;100450.41;24539;1323;3050481;-63
2022/11/28 03:30:07;;;;;;;21.60;10.80;;;;;;;6.40;77.94;100455.44;24502;1331;3025906;-70
2022/11/28 03:32:37;;;;;;;24.80;10.40;;;;;;;6.32;78.36;100461.41;24492;1331;3052091;-65
2022/11/28 03:35:13;;;;;;;22.30;11.00;;;;;;;6.18;78.81;100469.09;24433;1343;3027638;-70
2022/11/28 03:37:51;;;;;;;21.00;10.10;;;;;;;6.01;79.38;100470.91;24456;1340;3050692;-69
2022/11/28 03:40:26;;;;;;;14.00;6.90;;;;;;;5.97;80.04;100473.09;24458;1326;3052815;-64
2022/11/28 03:43:04;;;;;;;15.90;6.90;;;;;;;6.54;78.72;100468.64;24508;1339;3050214;-70
2022/11/28 03:45:54;;;;;;;18.50;8.30;;;;;;;7.14;76.36;100470.21;24489;1331;3069574;-72
2022/11/28 03:48:26;;;;;;;22.00;9.80;;;;;;;7.31;75.71;100470.55;24551;1333;3049467;-65
2022/11/28 03:51:04;;;;;;;20.40;10.00;;;;;;;7.14;75.47;100469.36;24566;1332;3027760;-67
2022/11/28 03:53:47;;;;;;;25.30;10.40;;;;;;;6.95;76.08;100473.73;24519;1331;3053123;-63
2022/11/28 03:56:21;;;;;;;22.60;10.90;;;;;;;6.74;76.64;100472.43;24489;1331;3053031;-66
2022/11/28 03:59:00;;;;;;;23.80;11.10;;;;;;;6.59;77.52;100479.64;24506;1333;3051351;-66
2022/11/28 04:01:46;;;;;;;22.70;10.20;;;;;;;6.47;77.85;100477.36;24544;1331;3053231;-68
2022/11/28 04:04:23;;;;;;;24.40;10.60;;;;;;;6.39;78.32;100473.92;24520;1338;3049313;-65
2022/11/28 04:07:19;;;;;;;21.10;9.50;;;;;;;6.29;78.57;100475.92;24459;1337;3069383;-66
2022/11/28 04:09:55;;;;;;;21.00;10.10;;;;;;;6.15;79.01;100480.47;24506;1331;3051662;-66
2022/11/28 04:12:58;;;;;;;15.20;6.60;;;;;;;6.11;79.52;100481.30;24479;1317;3055976;-69
2022/11/28 04:15:41;;;;;;;16.40;7.10;;;;;;;6.75;78.01;100473.79;24494;1332;3053724;-66
2022/11/28 04:18:22;;;;;;;17.70;7.20;;;;;;;7.23;76.25;100472.54;24567;1337;3053429;-64
2022/11/28 04:20:57;;;;;;;18.50;9.40;;;;;;;7.27;75.82;100474.02;24562;1337;3052011;-67
2022/11/28 04:23:26;;;;;;;20.80;9.10;;;;;;;7.00;76.23;100477.08;24520;1324;3052360;-63
2022/11/28 04:25:59;;;;;;;15.20;8.10;;;;;;;6.81;76.95;100475.20;24458;1333;3029037;-71
2022/11/28 04:28:29;;;;;;;16.50;7.60;;;;;;;6.53;77.73;100477.91;24468;1325;3050843;-67
2022/11/28 04:30:59;;;;;;;15.80;7.70;;;;;;;6.36;78.65;100482.34;24504;1327;3026283;-63
2022/11/28 04:33:29;;;;;;;12.60;6.10;;;;;;;6.24;79.20;100481.45;24518;1331;3026590;-64
2022/11/28 04:35:58;;;;;;;12.30;6.50;;;;;;;6.14;79.34;100483.81;24475;1333;3029302;-65
2022/11/28 04:38:27;;;;;;;11.80;5.70;;;;;;;5.99;80.34;100487.31;24478;1327;3028280;-66
2022/11/28 04:41:03;;;;;;;6.00;3.20;;;;;;;5.94;80.94;100494.20;24477;1332;3049009;-62
2022/11/28 04:43:41;;;;;;;4.50;2.80;;;;;;;6.42;79.62;100487.60;24473;1333;3069109;-63
2022/11/28 04:46:16;;;;;;;5.40;2.90;;;;;;;6.98;77.87;100483.58;24489;1336;3049496;-64
2022/11/28 04:48:45;;;;;;;7.00;3.30;;;;;;;6.94;77.33;100480.23;24450;1333;3056380;-65
2022/11/28 04:51:21;;;;;;;7.10;4.10;;;;;;;6.67;77.51;100480.80;24517;1323;3028242;-65
2022/11/28 04:53:56;;;;;;;13.10;5.50;;;;;;;6.46;78.45;100483.48;24465;1331;3050109;-66
2022/11/28 04:56:33;;;;;;;9.70;5.50;;;;;;;6.18;79.24;100489.61;24522;1340;3056997;-65
2022/11/28 04:59:03;;;;;;;10.40;4.90;;;;;;;6.04;80.03;100492.40;24479;1338;3052371;-66
2022/11/28 05:01:32;;;;;;;9.30;5.10;;;;;;;5.91;80.64;100499.50;24442;1327;3025795;-67
2022/11/28 05:04:01;;;;;;;15.10;6.40;;;;;;;5.75;80.98;100503.73;24461;1329;3028525;-74
2022/11/28 05:06:32;;;;;;;10.70;6.20;;;;;;;5.53;81.90;100504.41;24467;1323;3052033;-70
2022/11/28 05:09:02;;;;;;;7.70;4.40;;;;;;;5.49;82.64;100499.63;24543;1333;3026379;-71
2022/11/28 05:11:33;;;;;;;7.00;3.20;;;;;;;5.97;81.19;100492.39;24556;1330;3026880;-69
2022/11/28 05:14:02;;;;;;;7.70;5.00;;;;;;;6.46;78.76;100490.97;24488;1323;3028550;-71
2022/11/28 05:16:31;;;;;;;11.30;5.20;;;;;;;6.48;77.69;100485.85;24514;1333;3054912;-71
2022/11/28 05:19:00;;;;;;;8.70;5.60;;;;;;;6.36;77.79;100495.41;24480;1323;3028056;-65
2022/11/28 05:21:29;;;;;;;9.20;6.10;;;;;;;6.12;78.17;100504.20;24481;1333;3052733;-67
2022/11/28 05:23:58;;;;;;;11.20;6.80;;;;;;;5.85;79.13;100512.85;24458;1331;3028345;-65
2022/11/28 05:26:31;;;;;;;14.30;8.70;;;;;;;5.77;79.62;100517.91;24461;1334;3056204;-64
2022/11/28 05:29:00;;;;;;;12.70;7.70;;;;;;;5.70;79.73;100521.21;24501;1333;3028408;-67
2022/11/28 05:31:29;;;;;;;12.60;7.00;;;;;;;5.45;80.64;100524.05;24492;1323;3028695;-69
2022/11/28 05:33:58;;;;;;;10.50;6.10;;;;;;;5.41;81.06;100529.00;24497;1324;3056061;-68
2022/11/28 05:36:27;;;;;;;9.10;4.00;;;;;;;5.36;81.55;100533.61;24471;1333;3028006;-64
2022/11/28 05:38:56;;;;;;;5.80;3.60;;;;;;;5.86;80.14;100531.43;24481;1334;3049478;-69
2022/11/28 05:41:29;;;;;;;7.90;4.80;;;;;;;6.38;77.84;100527.90;24495;1322;3025773;-68
2022/11/28 05:43:58;;;;;;;8.30;5.20;;;;;;;6.38;77.16;100533.12;24502;1324;3068915;-69
2022/11/28 05:46:27;;;;;;;9.90;6.00;;;;;;;6.25;77.51;100541.80;24497;1333;3027958;-69
2022/11/28 05:48:56;;;;;;;11.20;7.10;;;;;;;6.01;78.38;100550.39;24462;1333;3028597;-65
2022/11/28 05:51:26;;;;;;;14.70;7.60;;;;;;;5.79;79.13;100552.48;24529;1320;3028359;-66
2022/11/28 05:53:55;;;;;;;12.00;7.20;;;;;;;5.61;79.74;100551.16;24514;1333;3050251;-65
2022/11/28 05:56:24;;;;;;;8.90;6.20;;;;;;;5.39;79.85;100553.70;24502;1331;3025727;-70
2022/11/28 05:58:53;;;;;;;8.80;6.20;;;;;;;5.32;80.23;100552.48;24459;1333;3067785;-69
2022/11/28 06:01:26;;;;;;;7.70;5.20;;;;;;;5.20;80.61;100551.00;24511;1321;3026856;-64
2022/11/28 06:03:59;;;;;;;6.40;4.00;;;;;;;5.20;80.60;100556.38;24518;1333;3049129;-68
2022/11/28 06:06:29;;;;;;;;;;;;;;;5.73;79.48;100552.95;24467;1333;3069170;-65
2022/11/28 06:08:59;;;;;;;5.80;3.60;;;;;;;6.21;76.93;100550.08;24533;1333;3026390;-65
2022/11/28 06:11:29;;;;;;;8.30;5.50;;;;;;;6.23;76.29;100555.61;24502;1333;3024779;-68
2022/11/28 06:13:58;;;;;;;12.20;6.80;;;;;;;6.08;76.79;100559.09;24484;1332;3068971;-67
2022/11/28 06:16:28;;;;;;;10.60;6.60;;;;;;;5.89;77.20;100561.80;24522;1323;3028036;-66
2022/11/28 06:19:02;;;;;;;10.90;5.40;;;;;;;5.64;78.00;100566.19;24496;1339;3049408;-64
2022/11/28 06:21:31;;;;;;;11.20;5.00;;;;;;;5.44;78.70;100564.21;24603;1315;3070525;-65
2022/11/28 06:24:04;;;;;;;8.00;5.20;;;;;;;5.28;79.52;100567.51;24531;1333;3026114;-64
2022/11/28 06:26:34;;;;;;;10.40;4.80;;;;;;;5.10;80.11;100569.44;24578;1332;3026591;-61
2022/11/28 06:29:03;;;;;;;8.60;5.30;;;;;;;4.96;80.59;100570.23;24488;1318;3028857;-69
2022/11/28 06:31:32;;;;;;;11.60;7.20;;;;;;;4.89;81.09;100574.18;24551;1323;3049386;-67
2022/11/28 06:34:01;;;;;;;7.10;4.30;;;;;;;4.88;81.45;100578.02;24581;1323;3028245;-66
2022/11/28 06:36:30;;;;;;;6.30;3.20;;;;;;;5.39;80.04;100576.11;24563;1331;3068806;-63
2022/11/28 06:38:59;;;;;;;7.00;4.70;;;;;;;5.92;77.90;100574.77;24598;1319;3028568;-65
2022/11/28 06:41:28;;;;;;;8.70;5.20;;;;;;;6.04;77.58;100577.45;24551;1326;3051164;-69
2022/11/28 06:43:57;;;;;;;9.60;5.50;;;;;;;5.90;77.67;100579.02;24530;1325;3028188;-65
2022/11/28 06:46:26;;;;;;;7.70;4.60;;;;;;;5.67;78.15;100579.52;24547;1324;3052605;-64
2022/11/28 06:48:55;;;;;;;8.20;5.70;;;;;;;5.46;78.63;100577.39;24529;1324;3028017;-64
2022/11/28 06:51:24;;;;;;;9.60;5.00;;;;;;;5.30;79.60;100573.89;24497;1330;3051513;-66
2022/11/28 06:53:53;;;;;;;9.40;5.80;;;;;;;5.13;79.81;100577.55;24570;1330;3027639;-65
2022/11/28 06:56:22;;;;;;;9.60;5.90;;;;;;;4.97;80.73;100579.08;24559;1331;3054364;-66
2022/11/28 06:58:55;;;;;;;10.30;5.80;;;;;;;4.80;81.28;100581.48;24567;1323;3028099;-65
2022/11/28 07:01:26;;;;;;;7.60;4.60;;;;;;;4.74;81.92;100586.98;24556;1332;3052227;-68
2022/11/28 07:03:56;;;;;;;6.70;3.80;;;;;;;5.14;80.82;100578.38;24558;1340;3027538;-66
2022/11/28 07:06:25;;;;;;;7.70;5.20;;;;;;;5.70;78.61;100582.23;24553;1340;3028706;-67
2022/11/28 07:08:55;;;;;;;10.70;5.90;;;;;;;5.65;77.88;100583.38;24507;1325;3025733;-67
2022/11/28 07:11:27;;;;;;;11.20;6.10;;;;;;;5.56;77.92;100588.62;24546;1325;3026816;-64
2022/11/28 07:13:56;;;;;;;9.40;6.10;;;;;;;5.42;78.44;100587.02;24529;1317;3026968;-62
2022/11/28 07:16:27;;;;;;;11.30;6.30;;;;;;;5.27;79.14;100589.76;24570;1331;3026212;-65
2022/11/28 07:18:56;;;;;;;10.10;5.50;;;;;;;5.12;79.95;100591.98;24489;1340;3026057;-67
2022/11/28 07:21:26;;;;;;;10.10;6.30;;;;;;;4.99;80.17;100590.16;24556;1322;3029168;-69
2022/11/28 07:23:56;;;;;;;9.50;6.10;;;;;;;4.90;80.71;100589.79;24505;1324;3028742;-68
2022/11/28 07:26:25;;;;;;;10.70;6.70;;;;;;;4.86;81.00;100592.82;24520;1336;3024996;-68
2022/11/28 07:28:58;;;;;;;8.50;4.70;;;;;;;4.72;81.50;100593.27;24529;1340;3028609;-65
2022/11/28 07:31:30;;;;;;;8.10;4.70;;;;;;;5.20;80.84;100595.96;24586;1336;3025987;-67
2022/11/28 07:34:01;;;;;;;11.40;6.40;;;;;;;5.75;78.64;100591.48;24573;1331;3026041;-70
2022/11/28 07:36:31;;;;;;;14.80;6.60;;;;;;;5.78;77.72;100596.14;24573;1329;3025610;-66
2022/11/28 07:39:02;;;;;;;12.30;6.20;;;;;;;5.53;77.57;100600.33;24505;1330;3026231;-66
2022/11/28 07:41:32;;;;;;;11.40;6.00;;;;;;;5.35;78.14;100601.77;24569;1331;3026705;-68
2022/11/28 07:44:02;;;;;;;12.80;6.60;;;;;;;5.16;78.89;100607.52;24518;1333;3025996;-62
2022/11/28 07:46:31;;;;;;;12.90;7.50;;;;;;;5.09;78.93;100604.55;24495;1330;3055953;-62
2022/11/28 07:49:01;;;;;;;16.40;7.50;;;;;;;4.81;79.47;100607.33;24494;1323;3026002;-65
2022/11/28 07:51:31;;;;;;;12.70;7.20;;;;;;;4.66;80.08;100607.77;24573;1323;3026480;-64
2022/11/28 07:54:03;;;;;;;16.20;8.20;;;;;;;4.56;80.42;100614.20;24479;1333;3027345;-70
2022/11/28 07:56:34;;;;;;;15.20;7.30;;;;;;;4.49;81.36;100614.13;24496;1333;3027371;-66
2022/11/28 07:59:03;;;;;;;15.70;5.40;;;;;;;4.53;81.23;100614.95;24498;1333;3028472;-67
2022/11/28 08:01:34;;;;;;;11.30;4.30;;;;;;;4.91;79.94;100608.19;24482;1323;3027903;-68
2022/11/28 08:04:05;;;;;;;13.80;6.30;;;;;;;5.51;77.95;100606.79;24540;1333;3025938;-69
2022/11/28 08:06:38;;;;;;;20.80;7.80;;;;;;;5.65;76.97;100609.98;24494;1323;3026356;-63
2022/11/28 08:09:07;;;;;;;18.40;8.70;;;;;;;5.47;77.20;100611.57;24529;1333;3025431;-65
2022/11/28 08:11:39;;;;;;;15.80;8.50;;;;;;;5.41;77.68;100608.93;24497;1331;3028472;-68
2022/11/28 08:14:09;;;;;;;19.80;9.80;;;;;;;5.36;78.09;100606.42;24507;1333;3028481;-64
2022/11/28 08:16:40;;;;;;;18.60;9.90;;;;;;;5.10;78.57;100604.00;24503;1333;3028262;-68
2022/11/28 08:19:09;;;;;;;21.70;9.40;;;;;;;5.01;79.00;100602.62;24499;1323;3027611;-73
2022/11/28 08:21:38;;;;;;;19.80;9.80;;;;;;;4.85;79.42;100602.58;24459;1317;3028822;-69
2022/11/28 08:24:07;;;;;;;24.20;10.30;;;;;;;4.73;79.73;100601.39;24569;1332;3028319;-67
2022/11/28 08:26:37;;;;;;;23.20;10.80;;;;;;;4.52;80.27;100607.14;24517;1331;3049860;-68
2022/11/28 08:29:06;;;;;;;21.80;7.90;;;;;;;4.58;80.35;100607.74;24509;1323;3028140;-62
2022/11/28 15:27:13;;;;;;;24.50;8.90;;;;;;;1.76;85.78;100646.15;30690;1337;3019043;-70
2022/11/28 15:30:25;;;;;;;29.30;12.50;;;;;;;2.91;82.31;100650.59;24424;1337;3071103;-71
2022/11/28 15:32:58;;;;;;;28.20;12.10;;;;;;;3.64;79.31;100652.01;24485;1333;3050497;-72
2022/11/28 15:35:28;;;;;;;32.70;14.30;;;;;;;3.43;78.21;100653.14;24496;1331;3025895;-70
2022/11/28 15:37:57;;;;;;;32.10;13.70;;;;;;;3.17;78.57;100657.09;24507;1341;3025805;-70
2022/11/28 15:40:32;;;;;;;29.00;13.60;;;;;;;3.22;78.48;100654.26;23791;1337;4258139;-68
2022/11/28 15:43:02;;;;;;;28.70;14.90;;;;;;;3.06;78.65;100655.98;24520;1337;3027692;-67
2022/11/28 15:45:36;;;;;;;27.30;14.70;;;;;;;2.92;79.13;100661.33;24518;1332;3026843;-69
2022/11/28 15:48:05;;;;;;;25.00;12.40;;;;;;;2.88;79.45;100669.85;24511;1329;3027672;-68
2022/11/28 15:50:35;;;;;;;25.40;11.30;;;;;;;2.97;79.67;100666.80;24468;1341;3026621;-67
2022/11/28 15:53:15;;;;;;;15.50;7.20;;;;;;;3.47;78.02;100660.35;24523;1336;3025955;-70
2022/11/28 15:55:47;;;;;;;21.80;9.70;;;;;;;4.04;75.19;100660.30;24456;1338;3048153;-68
2022/11/28 15:58:16;;;;;;;24.50;12.60;;;;;;;4.16;74.84;100654.75;24514;1337;3028793;-67
2022/11/28 16:00:57;;;;;;;29.60;13.80;;;;;;;3.94;74.62;100660.10;24539;1340;3026382;-69
2022/11/28 16:03:28;;;;;;;23.70;12.90;;;;;;;3.72;75.11;100666.46;24547;1334;3049462;-70
2022/11/28 16:05:57;;;;;;;28.40;13.60;;;;;;;3.50;75.50;100669.85;24437;1335;3027808;-66
2022/11/28 16:08:35;;;;;;;25.60;12.60;;;;;;;3.34;75.68;100672.98;24556;1337;3028155;-66
2022/11/28 16:11:05;;;;;;;26.90;13.60;;;;;;;3.12;76.68;100674.27;24523;1344;3049659;-69
2022/11/28 16:13:36;;;;;;;27.30;13.70;;;;;;;2.96;77.27;100674.26;24563;1337;3026383;-69
2022/11/28 16:16:09;;;;;;;27.00;13.00;;;;;;;2.79;77.51;100675.98;24545;1335;3027198;-69
2022/11/28 16:18:41;;;;;;;;;;;;;;;2.75;77.96;100683.45;24574;1332;3056429;-73
2022/11/28 16:21:13;;;;;;;21.60;11.20;;;;;;;2.62;78.66;100684.26;24595;1333;3025812;-70
2022/11/28 16:23:42;;;;;;;24.20;11.90;;;;;;;2.60;78.45;100687.56;24480;1334;3026731;-68
2022/11/28 16:26:22;;;;;;;17.30;9.30;;;;;;;2.59;78.93;100690.52;24623;1328;3027688;-67
2022/11/28 16:29:04;;;;;;;14.60;6.00;;;;;;;3.27;77.03;100682.41;24646;1326;3052412;-67
2022/11/28 16:32:09;;;;;;;17.80;9.30;;;;;;;3.92;74.18;100680.23;24595;1334;3049440;-73
2022/11/28 16:35:07;;;;;;;19.20;9.30;;;;;;;3.74;73.58;100676.84;24518;1320;3069075;-69
2022/11/28 16:37:36;;;;;;;24.60;12.00;;;;;;;3.77;74.08;100671.59;24536;1326;3026238;-70
2022/11/28 16:40:18;;;;;;;26.30;12.60;;;;;;;3.55;74.38;100673.61;24511;1327;3028778;-63
2022/11/28 16:42:52;;;;;;;18.60;10.70;;;;;;;3.16;75.08;100682.02;24567;1317;3069188;-71
2022/11/28 16:45:25;;;;;;;;;;;;;;;3.06;75.73;100687.84;24549;1334;3050105;-70
2022/11/28 16:48:07;;;;;;;23.70;9.80;;;;;;;2.82;76.50;100690.68;24571;1332;3026530;-70
2022/11/28 16:50:36;;;;;;;24.00;10.50;;;;;;;2.78;76.53;100692.08;24511;1333;3051961;-67
2022/11/28 16:53:06;;;;;;;21.30;10.90;;;;;;;2.74;76.53;100695.92;24533;1334;3026725;-73
2022/11/28 16:55:36;;;;;;;18.80;9.50;;;;;;;2.74;76.51;100697.84;24498;1336;3025918;-71
2022/11/28 16:58:18;;;;;;;20.40;10.90;;;;;;;2.77;76.40;100696.08;24573;1326;3026546;-65
2022/11/28 17:01:12;;;;;;;20.40;9.60;;;;;;;2.73;76.74;100701.64;24512;1335;3049717;-68
2022/11/28 17:03:45;;;;;;;21.70;10.20;;;;;;;2.64;76.91;100697.41;24543;1334;3026370;-68
2022/11/28 17:06:36;;;;;;;18.20;10.30;;;;;;;2.61;77.38;100689.98;24598;1333;3026896;-70
2022/11/28 17:09:06;;;;;;;16.00;7.20;;;;;;;2.63;77.15;100684.27;24531;1325;3056437;-70
2022/11/28 17:11:36;;;;;;;14.20;6.10;;;;;;;3.00;75.62;100685.11;24532;1339;3027579;-67
2022/11/28 17:14:18;;;;;;;12.60;6.40;;;;;;;3.76;72.84;100680.10;24523;1332;3052119;-68
2022/11/28 17:16:47;;;;;;;14.60;7.40;;;;;;;3.90;71.96;100685.27;24537;1326;3051031;-73
2022/11/28 17:19:41;;;;;;;17.80;8.80;;;;;;;3.56;72.37;100684.69;24688;1326;3051956;-71
2022/11/28 17:22:42;;;;;;;16.10;8.50;;;;;;;3.48;73.17;100689.80;24562;1334;3050003;-71
2022/11/28 17:25:18;;;;;;;18.20;8.70;;;;;;;3.28;73.72;100696.44;24510;1327;3068550;-71
2022/11/28 17:27:47;;;;;;;17.40;8.60;;;;;;;3.11;74.19;100702.16;24577;1336;3049661;-69
2022/11/28 17:30:17;;;;;;;17.10;9.30;;;;;;;2.90;75.11;100707.38;24592;1337;3028673;-73
2022/11/28 17:32:47;;;;;;;15.50;9.20;;;;;;;2.67;75.84;100712.95;24584;1333;3025896;-70
2022/11/28 17:35:44;;;;;;;14.50;7.50;;;;;;;2.62;76.27;100710.73;24571;1326;3052573;-72
2022/11/28 17:38:15;;;;;;;16.80;8.30;;;;;;;2.61;76.39;100709.18;24534;1327;3051542;-68
2022/11/28 17:40:45;;;;;;;15.00;7.40;;;;;;;2.45;76.82;100712.08;24558;1333;3028154;-70
2022/11/28 17:43:16;;;;;;;16.30;8.30;;;;;;;2.48;76.98;100711.18;24565;1334;3027985;-71
2022/11/28 17:45:47;;;;;;;13.20;7.30;;;;;;;2.45;77.00;100711.55;24657;1334;3027586;-71
2022/11/28 17:48:16;;;;;;;13.90;8.00;;;;;;;2.37;77.12;100708.84;24557;1323;3024878;-73
2022/11/28 17:50:46;;;;;;;15.00;8.10;;;;;;;2.30;77.47;100711.30;24580;1320;3026348;-68
2022/11/28 17:53:17;;;;;;;13.00;8.00;;;;;;;2.27;77.40;100714.27;24486;1333;3068346;-70
2022/11/28 17:55:47;;;;;;;14.90;8.40;;;;;;;2.24;77.68;100715.84;24624;1333;3027643;-67
2022/11/28 17:58:22;;;;;;;14.00;7.80;;;;;;;2.13;78.16;100715.23;24543;1334;3026242;-70
2022/11/28 18:00:55;;;;;;;17.50;8.50;;;;;;;2.15;78.01;100710.20;24548;1331;3052695;-71
2022/11/28 18:03:24;;;;;;;12.90;6.60;;;;;;;1.98;78.23;100714.44;24589;1324;3028620;-71
2022/11/28 18:05:52;;;;;;;13.20;5.20;;;;;;;2.61;76.73;100712.11;24542;1334;3056477;-73
2022/11/28 18:08:22;;;;;;;11.90;6.10;;;;;;;3.19;74.20;100709.17;24641;1325;3026383;-76
2022/11/28 18:11:02;;;;;;;14.30;6.80;;;;;;;3.38;73.12;100704.98;24570;1326;3027903;-70
2022/11/28 18:13:32;;;;;;;14.10;7.40;;;;;;;3.27;73.48;100705.46;24582;1334;3056320;-68
2022/11/28 18:16:01;;;;;;;15.30;7.60;;;;;;;3.05;74.00;100712.27;24489;1334;3028792;-70
2022/11/28 18:18:31;;;;;;;14.80;8.20;;;;;;;3.10;74.59;100710.48;24510;1336;3028602;-69
2022/11/28 18:20:59;;;;;;;15.60;8.10;;;;;;;2.82;74.74;100704.85;24570;1326;3026290;-70
2022/11/28 18:23:29;;;;;;;16.60;9.00;;;;;;;2.56;75.33;100706.27;24493;1337;3051473;-76
2022/11/28 18:25:58;;;;;;;18.10;9.30;;;;;;;2.38;76.07;100705.03;24508;1334;3026412;-71
2022/11/28 18:28:28;;;;;;;16.90;8.30;;;;;;;2.22;76.46;100703.40;24501;1332;3028600;-70
2022/11/28 18:30:57;;;;;;;16.40;8.20;;;;;;;2.20;76.63;100710.86;24517;1327;3025864;-69
2022/11/28 18:33:25;;;;;;;19.60;9.00;;;;;;;2.18;76.62;100709.48;24556;1337;3053149;-73
2022/11/28 18:35:54;;;;;;;14.10;8.30;;;;;;;2.11;77.21;100713.85;24594;1326;3026185;-69